sensor_id;sensor_type;location;lat;lon;timestamp;P1;durP1;ratioP1;P2;durP2;ratioP2
17173;SDS011;8702;48.130;-1.696;2023-05-17T00:02:29;3.73;;;1.70;;
17173;SDS011;8702;48.130;-1.696;2023-05-17T00:04:56;7.53;;;2.20;;
17173;SDS011;8702;48.130;-1.696;2023-05-17T00:07:23;6.23;;;2.00;;
17173;SDS011;8702;48.130;-1.696;2023-05-17T00:09:52;5.60;;;2.00;;
17173;SDS011;8702;48.130;-1.696;2023-05-17T00:12:19;4.27;;;1.90;;
17173;SDS011;8702;48.130;-1.696;2023-05-17T00:14:46;7.50;;;2.10;;
17173;SDS011;8702;48.130;-1.696;2023-05-17T00:17:14;4.93;;;2.20;;
17173;SDS011;8702;48.130;-1.696;2023-05-17T00:19:41;4.87;;;2.07;;
17173;SDS011;8702;48.130;-1.696;2023-05-17T00:22:08;6.40;;;2.00;;
17173;SDS011;8702;48.130;-1.696;2023-05-17T00:24:35;5.73;;;2.47;;
17173;SDS011;8702;48.130;-1.696;2023-05-17T00:27:04;5.17;;;2.40;;
17173;SDS011;8702;48.130;-1.696;2023-05-17T00:29:34;6.20;;;2.23;;
17173;SDS011;8702;48.130;-1.696;2023-05-17T00:32:01;9.70;;;2.17;;
17173;SDS011;8702;48.130;-1.696;2023-05-17T00:34:34;5.40;;;2.17;;
17173;SDS011;8702;48.130;-1.696;2023-05-17T00:37:01;7.73;;;2.03;;
17173;SDS011;8702;48.130;-1.696;2023-05-17T00:39:30;6.23;;;1.90;;
17173;SDS011;8702;48.130;-1.696;2023-05-17T00:41:57;5.53;;;2.60;;
17173;SDS011;8702;48.130;-1.696;2023-05-17T00:44:26;3.67;;;1.97;;
17173;SDS011;8702;48.130;-1.696;2023-05-17T00:46:53;6.60;;;2.20;;
17173;SDS011;8702;48.130;-1.696;2023-05-17T00:49:21;6.53;;;2.27;;
17173;SDS011;8702;48.130;-1.696;2023-05-17T00:51:48;4.50;;;2.17;;
17173;SDS011;8702;48.130;-1.696;2023-05-17T00:54:16;4.17;;;2.27;;
17173;SDS011;8702;48.130;-1.696;2023-05-17T00:56:44;7.27;;;2.40;;
17173;SDS011;8702;48.130;-1.696;2023-05-17T00:59:12;5.50;;;1.97;;
17173;SDS011;8702;48.130;-1.696;2023-05-17T01:01:41;6.57;;;2.20;;
17173;SDS011;8702;48.130;-1.696;2023-05-17T01:04:09;5.37;;;2.33;;
17173;SDS011;8702;48.130;-1.696;2023-05-17T01:06:36;5.47;;;2.30;;
17173;SDS011;8702;48.130;-1.696;2023-05-17T01:09:05;5.17;;;2.03;;
17173;SDS011;8702;48.130;-1.696;2023-05-17T01:11:38;5.90;;;2.57;;
17173;SDS011;8702;48.130;-1.696;2023-05-17T01:14:17;3.77;;;2.10;;
17173;SDS011;8702;48.130;-1.696;2023-05-17T01:17:05;7.77;;;2.50;;
17173;SDS011;8702;48.130;-1.696;2023-05-17T01:22:35;4.37;;;2.00;;
17173;SDS011;8702;48.130;-1.696;2023-05-17T01:25:20;5.43;;;2.20;;
17173;SDS011;8702;48.130;-1.696;2023-05-17T01:27:59;5.27;;;2.23;;
17173;SDS011;8702;48.130;-1.696;2023-05-17T01:30:30;6.97;;;2.60;;
17173;SDS011;8702;48.130;-1.696;2023-05-17T01:32:58;6.83;;;2.70;;
17173;SDS011;8702;48.130;-1.696;2023-05-17T01:35:27;5.70;;;2.20;;
17173;SDS011;8702;48.130;-1.696;2023-05-17T01:37:54;8.27;;;2.80;;
17173;SDS011;8702;48.130;-1.696;2023-05-17T01:40:21;5.73;;;2.03;;
17173;SDS011;8702;48.130;-1.696;2023-05-17T01:42:55;4.90;;;2.43;;
17173;SDS011;8702;48.130;-1.696;2023-05-17T01:45:29;6.83;;;2.30;;
17173;SDS011;8702;48.130;-1.696;2023-05-17T01:48:05;4.97;;;2.30;;
17173;SDS011;8702;48.130;-1.696;2023-05-17T01:50:40;5.23;;;2.00;;
17173;SDS011;8702;48.130;-1.696;2023-05-17T01:53:19;5.93;;;2.73;;
17173;SDS011;8702;48.130;-1.696;2023-05-17T01:55:51;8.47;;;2.87;;
17173;SDS011;8702;48.130;-1.696;2023-05-17T01:58:24;5.67;;;2.30;;
17173;SDS011;8702;48.130;-1.696;2023-05-17T02:00:53;6.60;;;2.10;;
17173;SDS011;8702;48.130;-1.696;2023-05-17T02:03:22;4.57;;;2.10;;
17173;SDS011;8702;48.130;-1.696;2023-05-17T02:05:50;6.30;;;2.10;;
17173;SDS011;8702;48.130;-1.696;2023-05-17T02:08:17;5.40;;;2.70;;
17173;SDS011;8702;48.130;-1.696;2023-05-17T02:10:44;6.13;;;2.47;;
17173;SDS011;8702;48.130;-1.696;2023-05-17T02:13:11;3.73;;;2.10;;
17173;SDS011;8702;48.130;-1.696;2023-05-17T02:15:38;5.73;;;2.00;;
17173;SDS011;8702;48.130;-1.696;2023-05-17T02:18:11;3.90;;;2.17;;
17173;SDS011;8702;48.130;-1.696;2023-05-17T02:20:38;6.40;;;2.13;;
17173;SDS011;8702;48.130;-1.696;2023-05-17T02:23:05;5.23;;;2.57;;
17173;SDS011;8702;48.130;-1.696;2023-05-17T02:25:34;6.10;;;2.00;;
17173;SDS011;8702;48.130;-1.696;2023-05-17T02:28:02;7.17;;;2.53;;
17173;SDS011;8702;48.130;-1.696;2023-05-17T02:30:33;5.70;;;2.30;;
17173;SDS011;8702;48.130;-1.696;2023-05-17T02:33:00;5.13;;;2.10;;
17173;SDS011;8702;48.130;-1.696;2023-05-17T02:35:29;5.93;;;2.50;;
17173;SDS011;8702;48.130;-1.696;2023-05-17T02:38:02;6.93;;;2.57;;
17173;SDS011;8702;48.130;-1.696;2023-05-17T02:40:29;6.53;;;2.30;;
17173;SDS011;8702;48.130;-1.696;2023-05-17T02:42:56;4.90;;;2.30;;
17173;SDS011;8702;48.130;-1.696;2023-05-17T02:45:23;4.50;;;2.33;;
17173;SDS011;8702;48.130;-1.696;2023-05-17T02:47:50;5.47;;;2.70;;
17173;SDS011;8702;48.130;-1.696;2023-05-17T02:50:18;4.57;;;2.43;;
17173;SDS011;8702;48.130;-1.696;2023-05-17T02:52:47;10.13;;;2.90;;
17173;SDS011;8702;48.130;-1.696;2023-05-17T02:55:15;5.60;;;2.67;;
17173;SDS011;8702;48.130;-1.696;2023-05-17T02:57:42;6.17;;;2.30;;
17173;SDS011;8702;48.130;-1.696;2023-05-17T03:00:12;5.13;;;2.60;;
17173;SDS011;8702;48.130;-1.696;2023-05-17T03:02:40;4.50;;;2.27;;
17173;SDS011;8702;48.130;-1.696;2023-05-17T03:05:07;7.63;;;2.27;;
17173;SDS011;8702;48.130;-1.696;2023-05-17T03:07:36;6.27;;;2.67;;
17173;SDS011;8702;48.130;-1.696;2023-05-17T03:10:05;7.33;;;2.50;;
17173;SDS011;8702;48.130;-1.696;2023-05-17T03:12:35;7.23;;;3.00;;
17173;SDS011;8702;48.130;-1.696;2023-05-17T03:15:02;7.40;;;2.70;;
17173;SDS011;8702;48.130;-1.696;2023-05-17T03:17:30;6.40;;;2.63;;
17173;SDS011;8702;48.130;-1.696;2023-05-17T03:19:57;4.63;;;2.60;;
17173;SDS011;8702;48.130;-1.696;2023-05-17T03:22:24;4.67;;;2.13;;
17173;SDS011;8702;48.130;-1.696;2023-05-17T03:24:51;7.23;;;3.03;;
17173;SDS011;8702;48.130;-1.696;2023-05-17T03:27:19;5.80;;;2.60;;
17173;SDS011;8702;48.130;-1.696;2023-05-17T03:29:48;7.73;;;3.13;;
17173;SDS011;8702;48.130;-1.696;2023-05-17T03:32:14;7.03;;;3.00;;
17173;SDS011;8702;48.130;-1.696;2023-05-17T03:34:42;5.17;;;2.30;;
17173;SDS011;8702;48.130;-1.696;2023-05-17T03:37:08;7.27;;;2.83;;
17173;SDS011;8702;48.130;-1.696;2023-05-17T03:39:35;6.87;;;2.60;;
17173;SDS011;8702;48.130;-1.696;2023-05-17T03:42:02;6.43;;;2.57;;
17173;SDS011;8702;48.130;-1.696;2023-05-17T03:44:31;6.17;;;2.70;;
17173;SDS011;8702;48.130;-1.696;2023-05-17T03:46:58;6.60;;;2.97;;
17173;SDS011;8702;48.130;-1.696;2023-05-17T03:49:25;5.53;;;3.27;;
17173;SDS011;8702;48.130;-1.696;2023-05-17T03:51:52;4.70;;;2.77;;
17173;SDS011;8702;48.130;-1.696;2023-05-17T03:54:19;7.50;;;2.87;;
17173;SDS011;8702;48.130;-1.696;2023-05-17T03:56:46;6.77;;;2.87;;
17173;SDS011;8702;48.130;-1.696;2023-05-17T03:59:14;5.93;;;2.80;;
17173;SDS011;8702;48.130;-1.696;2023-05-17T04:01:42;5.30;;;2.90;;
17173;SDS011;8702;48.130;-1.696;2023-05-17T04:04:09;4.27;;;2.40;;
17173;SDS011;8702;48.130;-1.696;2023-05-17T04:06:37;6.80;;;3.00;;
17173;SDS011;8702;48.130;-1.696;2023-05-17T04:09:05;7.17;;;3.03;;
17173;SDS011;8702;48.130;-1.696;2023-05-17T04:11:33;6.70;;;2.80;;
17173;SDS011;8702;48.130;-1.696;2023-05-17T04:14:02;7.10;;;3.17;;
17173;SDS011;8702;48.130;-1.696;2023-05-17T04:16:29;4.23;;;2.50;;
17173;SDS011;8702;48.130;-1.696;2023-05-17T04:18:58;6.60;;;3.00;;
17173;SDS011;8702;48.130;-1.696;2023-05-17T04:21:25;7.00;;;2.77;;
17173;SDS011;8702;48.130;-1.696;2023-05-17T04:23:52;6.43;;;3.00;;
17173;SDS011;8702;48.130;-1.696;2023-05-17T04:26:19;3.97;;;2.70;;
17173;SDS011;8702;48.130;-1.696;2023-05-17T04:28:46;11.03;;;3.80;;
17173;SDS011;8702;48.130;-1.696;2023-05-17T04:31:14;7.13;;;3.07;;
17173;SDS011;8702;48.130;-1.696;2023-05-17T04:33:42;6.57;;;3.00;;
17173;SDS011;8702;48.130;-1.696;2023-05-17T04:36:10;5.13;;;2.80;;
17173;SDS011;8702;48.130;-1.696;2023-05-17T04:38:37;7.73;;;3.17;;
17173;SDS011;8702;48.130;-1.696;2023-05-17T04:41:04;5.63;;;3.13;;
17173;SDS011;8702;48.130;-1.696;2023-05-17T04:43:33;7.63;;;3.13;;
17173;SDS011;8702;48.130;-1.696;2023-05-17T04:46:00;8.93;;;3.00;;
17173;SDS011;8702;48.130;-1.696;2023-05-17T04:48:29;7.63;;;3.00;;
17173;SDS011;8702;48.130;-1.696;2023-05-17T04:50:59;4.90;;;2.70;;
17173;SDS011;8702;48.130;-1.696;2023-05-17T04:53:27;6.27;;;3.17;;
17173;SDS011;8702;48.130;-1.696;2023-05-17T04:55:54;5.43;;;2.97;;
17173;SDS011;8702;48.130;-1.696;2023-05-17T04:58:21;6.33;;;2.70;;
17173;SDS011;8702;48.130;-1.696;2023-05-17T05:00:49;6.40;;;2.70;;
17173;SDS011;8702;48.130;-1.696;2023-05-17T05:03:16;6.63;;;2.53;;
17173;SDS011;8702;48.130;-1.696;2023-05-17T05:05:43;6.37;;;3.03;;
17173;SDS011;8702;48.130;-1.696;2023-05-17T05:08:10;8.23;;;2.60;;
17173;SDS011;8702;48.130;-1.696;2023-05-17T05:10:39;9.17;;;2.77;;
17173;SDS011;8702;48.130;-1.696;2023-05-17T05:13:06;7.20;;;3.60;;
17173;SDS011;8702;48.130;-1.696;2023-05-17T05:15:33;8.83;;;3.00;;
17173;SDS011;8702;48.130;-1.696;2023-05-17T05:18:00;5.73;;;2.93;;
17173;SDS011;8702;48.130;-1.696;2023-05-17T05:20:27;8.47;;;2.87;;
17173;SDS011;8702;48.130;-1.696;2023-05-17T05:22:53;4.87;;;2.97;;
17173;SDS011;8702;48.130;-1.696;2023-05-17T05:25:22;4.80;;;2.30;;
17173;SDS011;8702;48.130;-1.696;2023-05-17T05:27:50;7.63;;;3.50;;
17173;SDS011;8702;48.130;-1.696;2023-05-17T05:30:17;9.80;;;3.37;;
17173;SDS011;8702;48.130;-1.696;2023-05-17T05:32:47;7.63;;;2.87;;
17173;SDS011;8702;48.130;-1.696;2023-05-17T05:35:14;8.73;;;3.50;;
17173;SDS011;8702;48.130;-1.696;2023-05-17T05:37:41;11.73;;;3.47;;
17173;SDS011;8702;48.130;-1.696;2023-05-17T05:40:08;7.23;;;3.10;;
17173;SDS011;8702;48.130;-1.696;2023-05-17T05:42:37;7.53;;;3.20;;
17173;SDS011;8702;48.130;-1.696;2023-05-17T05:45:06;7.37;;;3.17;;
17173;SDS011;8702;48.130;-1.696;2023-05-17T05:47:35;7.27;;;3.50;;
17173;SDS011;8702;48.130;-1.696;2023-05-17T05:50:02;7.80;;;4.00;;
17173;SDS011;8702;48.130;-1.696;2023-05-17T05:52:29;10.60;;;3.93;;
17173;SDS011;8702;48.130;-1.696;2023-05-17T05:54:56;8.13;;;3.40;;
17173;SDS011;8702;48.130;-1.696;2023-05-17T05:57:23;6.70;;;3.57;;
17173;SDS011;8702;48.130;-1.696;2023-05-17T05:59:50;7.63;;;3.47;;
17173;SDS011;8702;48.130;-1.696;2023-05-17T06:02:20;9.77;;;3.63;;
17173;SDS011;8702;48.130;-1.696;2023-05-17T06:04:47;10.50;;;3.70;;
17173;SDS011;8702;48.130;-1.696;2023-05-17T06:07:14;6.53;;;3.10;;
17173;SDS011;8702;48.130;-1.696;2023-05-17T06:09:41;11.33;;;4.00;;
17173;SDS011;8702;48.130;-1.696;2023-05-17T06:12:08;8.60;;;3.47;;
17173;SDS011;8702;48.130;-1.696;2023-05-17T06:14:35;8.20;;;3.47;;
17173;SDS011;8702;48.130;-1.696;2023-05-17T06:17:03;7.57;;;3.47;;
17173;SDS011;8702;48.130;-1.696;2023-05-17T06:19:31;6.83;;;3.27;;
17173;SDS011;8702;48.130;-1.696;2023-05-17T06:21:58;5.50;;;3.50;;
17173;SDS011;8702;48.130;-1.696;2023-05-17T06:24:25;7.77;;;3.60;;
17173;SDS011;8702;48.130;-1.696;2023-05-17T06:26:52;10.87;;;3.90;;
17173;SDS011;8702;48.130;-1.696;2023-05-17T06:29:19;8.40;;;3.97;;
17173;SDS011;8702;48.130;-1.696;2023-05-17T06:31:46;5.30;;;3.27;;
17173;SDS011;8702;48.130;-1.696;2023-05-17T06:34:13;10.53;;;3.63;;
17173;SDS011;8702;48.130;-1.696;2023-05-17T06:36:42;11.20;;;4.20;;
17173;SDS011;8702;48.130;-1.696;2023-05-17T06:39:11;6.90;;;3.43;;
17173;SDS011;8702;48.130;-1.696;2023-05-17T06:41:38;7.87;;;3.83;;
17173;SDS011;8702;48.130;-1.696;2023-05-17T06:44:04;8.47;;;3.37;;
17173;SDS011;8702;48.130;-1.696;2023-05-17T06:46:31;8.17;;;3.40;;
17173;SDS011;8702;48.130;-1.696;2023-05-17T06:48:58;7.00;;;3.60;;
17173;SDS011;8702;48.130;-1.696;2023-05-17T06:51:25;14.37;;;4.17;;
17173;SDS011;8702;48.130;-1.696;2023-05-17T06:53:54;8.63;;;3.83;;
17173;SDS011;8702;48.130;-1.696;2023-05-17T06:56:20;14.00;;;3.53;;
17173;SDS011;8702;48.130;-1.696;2023-05-17T06:58:47;7.90;;;3.80;;
17173;SDS011;8702;48.130;-1.696;2023-05-17T07:01:14;10.00;;;4.23;;
17173;SDS011;8702;48.130;-1.696;2023-05-17T07:03:41;10.43;;;4.17;;
17173;SDS011;8702;48.130;-1.696;2023-05-17T07:06:09;7.50;;;3.60;;
17173;SDS011;8702;48.130;-1.696;2023-05-17T07:08:35;7.13;;;3.60;;
17173;SDS011;8702;48.130;-1.696;2023-05-17T07:11:04;8.40;;;3.60;;
17173;SDS011;8702;48.130;-1.696;2023-05-17T07:13:31;7.93;;;3.63;;
17173;SDS011;8702;48.130;-1.696;2023-05-17T07:15:59;8.73;;;3.40;;
17173;SDS011;8702;48.130;-1.696;2023-05-17T07:18:26;9.20;;;3.83;;
17173;SDS011;8702;48.130;-1.696;2023-05-17T07:20:53;9.00;;;4.00;;
17173;SDS011;8702;48.130;-1.696;2023-05-17T07:23:20;7.23;;;4.60;;
17173;SDS011;8702;48.130;-1.696;2023-05-17T07:25:47;9.70;;;3.90;;
17173;SDS011;8702;48.130;-1.696;2023-05-17T07:28:18;9.43;;;3.97;;
17173;SDS011;8702;48.130;-1.696;2023-05-17T07:30:45;9.43;;;4.27;;
17173;SDS011;8702;48.130;-1.696;2023-05-17T07:33:12;8.50;;;4.70;;
17173;SDS011;8702;48.130;-1.696;2023-05-17T07:35:39;9.67;;;4.60;;
17173;SDS011;8702;48.130;-1.696;2023-05-17T07:38:06;6.73;;;3.80;;
17173;SDS011;8702;48.130;-1.696;2023-05-17T07:40:33;12.97;;;4.90;;
17173;SDS011;8702;48.130;-1.696;2023-05-17T07:42:59;7.93;;;4.40;;
17173;SDS011;8702;48.130;-1.696;2023-05-17T07:45:28;9.97;;;4.17;;
17173;SDS011;8702;48.130;-1.696;2023-05-17T07:47:55;7.77;;;3.73;;
17173;SDS011;8702;48.130;-1.696;2023-05-17T07:50:22;10.90;;;5.17;;
17173;SDS011;8702;48.130;-1.696;2023-05-17T07:52:49;10.20;;;4.30;;
17173;SDS011;8702;48.130;-1.696;2023-05-17T07:55:16;9.40;;;4.37;;
17173;SDS011;8702;48.130;-1.696;2023-05-17T07:57:44;10.47;;;3.97;;
17173;SDS011;8702;48.130;-1.696;2023-05-17T08:00:12;10.73;;;4.97;;
17173;SDS011;8702;48.130;-1.696;2023-05-17T08:02:44;11.20;;;4.70;;
17173;SDS011;8702;48.130;-1.696;2023-05-17T08:05:11;8.73;;;4.37;;
17173;SDS011;8702;48.130;-1.696;2023-05-17T08:07:38;9.27;;;4.23;;
17173;SDS011;8702;48.130;-1.696;2023-05-17T08:10:06;6.93;;;3.50;;
17173;SDS011;8702;48.130;-1.696;2023-05-17T08:12:34;8.93;;;4.17;;
17173;SDS011;8702;48.130;-1.696;2023-05-17T08:15:01;7.77;;;3.70;;
17173;SDS011;8702;48.130;-1.696;2023-05-17T08:17:29;9.37;;;3.50;;
17173;SDS011;8702;48.130;-1.696;2023-05-17T08:19:57;9.97;;;4.23;;
17173;SDS011;8702;48.130;-1.696;2023-05-17T08:22:24;8.97;;;3.57;;
17173;SDS011;8702;48.130;-1.696;2023-05-17T08:24:51;12.30;;;3.97;;
17173;SDS011;8702;48.130;-1.696;2023-05-17T08:27:18;8.43;;;4.00;;
17173;SDS011;8702;48.130;-1.696;2023-05-17T08:29:45;7.67;;;4.10;;
17173;SDS011;8702;48.130;-1.696;2023-05-17T08:32:13;11.67;;;4.40;;
17173;SDS011;8702;48.130;-1.696;2023-05-17T08:34:40;9.03;;;3.70;;
17173;SDS011;8702;48.130;-1.696;2023-05-17T08:37:08;9.90;;;4.00;;
17173;SDS011;8702;48.130;-1.696;2023-05-17T08:39:39;13.00;;;4.57;;
17173;SDS011;8702;48.130;-1.696;2023-05-17T08:42:06;9.43;;;4.23;;
17173;SDS011;8702;48.130;-1.696;2023-05-17T08:44:33;9.20;;;4.23;;
17173;SDS011;8702;48.130;-1.696;2023-05-17T08:47:02;8.33;;;4.23;;
17173;SDS011;8702;48.130;-1.696;2023-05-17T08:49:31;10.73;;;3.90;;
17173;SDS011;8702;48.130;-1.696;2023-05-17T08:52:02;12.80;;;4.57;;
17173;SDS011;8702;48.130;-1.696;2023-05-17T08:54:35;5.97;;;4.20;;
17173;SDS011;8702;48.130;-1.696;2023-05-17T08:57:03;8.33;;;4.03;;
17173;SDS011;8702;48.130;-1.696;2023-05-17T08:59:31;7.90;;;3.97;;
17173;SDS011;8702;48.130;-1.696;2023-05-17T09:02:02;5.57;;;3.30;;
17173;SDS011;8702;48.130;-1.696;2023-05-17T09:04:31;15.93;;;4.13;;
17173;SDS011;8702;48.130;-1.696;2023-05-17T09:06:58;9.53;;;4.20;;
17173;SDS011;8702;48.130;-1.696;2023-05-17T09:09:26;8.60;;;4.13;;
17173;SDS011;8702;48.130;-1.696;2023-05-17T09:11:54;8.33;;;4.23;;
17173;SDS011;8702;48.130;-1.696;2023-05-17T09:14:22;8.17;;;4.03;;
17173;SDS011;8702;48.130;-1.696;2023-05-17T09:16:55;8.43;;;4.23;;
17173;SDS011;8702;48.130;-1.696;2023-05-17T09:19:22;9.10;;;4.10;;
17173;SDS011;8702;48.130;-1.696;2023-05-17T09:21:49;10.73;;;5.20;;
17173;SDS011;8702;48.130;-1.696;2023-05-17T09:24:17;10.97;;;4.60;;
17173;SDS011;8702;48.130;-1.696;2023-05-17T09:26:52;10.93;;;5.30;;
17173;SDS011;8702;48.130;-1.696;2023-05-17T09:29:20;7.27;;;4.20;;
17173;SDS011;8702;48.130;-1.696;2023-05-17T09:31:47;5.93;;;4.33;;
17173;SDS011;8702;48.130;-1.696;2023-05-17T09:34:16;10.33;;;5.53;;
17173;SDS011;8702;48.130;-1.696;2023-05-17T09:36:44;10.70;;;5.23;;
17173;SDS011;8702;48.130;-1.696;2023-05-17T09:39:11;11.07;;;4.90;;
17173;SDS011;8702;48.130;-1.696;2023-05-17T09:41:39;11.70;;;4.83;;
17173;SDS011;8702;48.130;-1.696;2023-05-17T09:44:08;10.57;;;5.43;;
17173;SDS011;8702;48.130;-1.696;2023-05-17T09:46:40;14.17;;;5.77;;
17173;SDS011;8702;48.130;-1.696;2023-05-17T09:49:07;10.97;;;6.00;;
17173;SDS011;8702;48.130;-1.696;2023-05-17T09:51:35;10.63;;;5.10;;
17173;SDS011;8702;48.130;-1.696;2023-05-17T09:54:05;9.07;;;5.50;;
17173;SDS011;8702;48.130;-1.696;2023-05-17T09:56:32;12.17;;;6.07;;
17173;SDS011;8702;48.130;-1.696;2023-05-17T09:59:00;10.70;;;5.37;;
17173;SDS011;8702;48.130;-1.696;2023-05-17T10:01:28;7.63;;;5.20;;
17173;SDS011;8702;48.130;-1.696;2023-05-17T10:03:59;9.70;;;4.93;;
17173;SDS011;8702;48.130;-1.696;2023-05-17T10:06:27;8.90;;;5.13;;
17173;SDS011;8702;48.130;-1.696;2023-05-17T10:08:56;5.80;;;4.00;;
17173;SDS011;8702;48.130;-1.696;2023-05-17T10:11:25;5.93;;;3.90;;
17173;SDS011;8702;48.130;-1.696;2023-05-17T10:14:01;10.43;;;4.27;;
17173;SDS011;8702;48.130;-1.696;2023-05-17T10:16:33;12.40;;;5.33;;
17173;SDS011;8702;48.130;-1.696;2023-05-17T10:19:06;11.03;;;5.13;;
17173;SDS011;8702;48.130;-1.696;2023-05-17T10:21:34;9.17;;;4.87;;
17173;SDS011;8702;48.130;-1.696;2023-05-17T10:24:02;13.07;;;5.27;;
17173;SDS011;8702;48.130;-1.696;2023-05-17T10:26:29;7.90;;;4.73;;
17173;SDS011;8702;48.130;-1.696;2023-05-17T10:28:57;8.77;;;4.90;;
17173;SDS011;8702;48.130;-1.696;2023-05-17T10:31:28;6.50;;;4.60;;
17173;SDS011;8702;48.130;-1.696;2023-05-17T10:33:57;17.17;;;5.63;;
17173;SDS011;8702;48.130;-1.696;2023-05-17T10:36:27;10.83;;;6.20;;
17173;SDS011;8702;48.130;-1.696;2023-05-17T10:38:55;8.67;;;5.03;;
17173;SDS011;8702;48.130;-1.696;2023-05-17T10:41:23;6.47;;;4.33;;
17173;SDS011;8702;48.130;-1.696;2023-05-17T10:43:51;7.03;;;5.00;;
17173;SDS011;8702;48.130;-1.696;2023-05-17T10:46:19;7.93;;;4.80;;
17173;SDS011;8702;48.130;-1.696;2023-05-17T10:48:49;6.83;;;4.33;;
17173;SDS011;8702;48.130;-1.696;2023-05-17T10:51:21;11.40;;;5.43;;
17173;SDS011;8702;48.130;-1.696;2023-05-17T10:54:09;8.23;;;5.67;;
17173;SDS011;8702;48.130;-1.696;2023-05-17T10:56:39;6.37;;;5.33;;
17173;SDS011;8702;48.130;-1.696;2023-05-17T10:59:13;8.17;;;5.13;;
17173;SDS011;8702;48.130;-1.696;2023-05-17T11:01:52;8.10;;;5.33;;
17173;SDS011;8702;48.130;-1.696;2023-05-17T11:04:23;8.23;;;5.53;;
17173;SDS011;8702;48.130;-1.696;2023-05-17T11:06:52;6.83;;;4.77;;
17173;SDS011;8702;48.130;-1.696;2023-05-17T11:09:23;7.47;;;4.83;;
17173;SDS011;8702;48.130;-1.696;2023-05-17T11:12:03;8.13;;;5.27;;
17173;SDS011;8702;48.130;-1.696;2023-05-17T11:14:46;7.00;;;4.70;;
17173;SDS011;8702;48.130;-1.696;2023-05-17T11:17:14;6.73;;;4.30;;
17173;SDS011;8702;48.130;-1.696;2023-05-17T11:19:48;6.30;;;3.90;;
17173;SDS011;8702;48.130;-1.696;2023-05-17T11:22:15;6.20;;;3.77;;
17173;SDS011;8702;48.130;-1.696;2023-05-17T11:24:45;5.07;;;3.27;;
17173;SDS011;8702;48.130;-1.696;2023-05-17T11:27:17;5.23;;;3.30;;
17173;SDS011;8702;48.130;-1.696;2023-05-17T11:29:45;6.03;;;3.27;;
17173;SDS011;8702;48.130;-1.696;2023-05-17T11:32:13;4.07;;;2.90;;
17173;SDS011;8702;48.130;-1.696;2023-05-17T11:34:40;7.30;;;3.40;;
17173;SDS011;8702;48.130;-1.696;2023-05-17T11:37:09;4.70;;;3.20;;
17173;SDS011;8702;48.130;-1.696;2023-05-17T11:39:37;6.87;;;3.30;;
17173;SDS011;8702;48.130;-1.696;2023-05-17T11:42:25;4.97;;;2.77;;
17173;SDS011;8702;48.130;-1.696;2023-05-17T11:44:55;4.10;;;2.73;;
17173;SDS011;8702;48.130;-1.696;2023-05-17T11:47:23;6.30;;;3.20;;
17173;SDS011;8702;48.130;-1.696;2023-05-17T11:49:51;5.57;;;3.37;;
17173;SDS011;8702;48.130;-1.696;2023-05-17T11:52:19;5.53;;;3.00;;
17173;SDS011;8702;48.130;-1.696;2023-05-17T11:54:47;8.50;;;3.63;;
17173;SDS011;8702;48.130;-1.696;2023-05-17T11:57:14;4.33;;;2.70;;
17173;SDS011;8702;48.130;-1.696;2023-05-17T11:59:44;4.13;;;3.03;;
17173;SDS011;8702;48.130;-1.696;2023-05-17T12:02:24;6.27;;;3.60;;
17173;SDS011;8702;48.130;-1.696;2023-05-17T12:04:52;4.30;;;3.13;;
17173;SDS011;8702;48.130;-1.696;2023-05-17T12:07:19;4.17;;;3.20;;
17173;SDS011;8702;48.130;-1.696;2023-05-17T12:09:46;5.27;;;3.20;;
17173;SDS011;8702;48.130;-1.696;2023-05-17T12:12:14;6.67;;;3.00;;
17173;SDS011;8702;48.130;-1.696;2023-05-17T12:14:43;4.67;;;3.00;;
17173;SDS011;8702;48.130;-1.696;2023-05-17T12:17:15;4.40;;;3.20;;
17173;SDS011;8702;48.130;-1.696;2023-05-17T12:19:45;7.03;;;3.07;;
17173;SDS011;8702;48.130;-1.696;2023-05-17T12:22:12;4.40;;;2.97;;
17173;SDS011;8702;48.130;-1.696;2023-05-17T12:24:40;6.17;;;2.57;;
17173;SDS011;8702;48.130;-1.696;2023-05-17T12:27:08;4.10;;;2.90;;
17173;SDS011;8702;48.130;-1.696;2023-05-17T12:29:35;6.37;;;3.13;;
17173;SDS011;8702;48.130;-1.696;2023-05-17T12:32:04;4.70;;;2.80;;
17173;SDS011;8702;48.130;-1.696;2023-05-17T12:34:32;4.10;;;2.60;;
17173;SDS011;8702;48.130;-1.696;2023-05-17T12:36:59;6.57;;;3.03;;
17173;SDS011;8702;48.130;-1.696;2023-05-17T12:39:26;4.83;;;2.93;;
17173;SDS011;8702;48.130;-1.696;2023-05-17T12:41:54;5.67;;;2.63;;
17173;SDS011;8702;48.130;-1.696;2023-05-17T12:44:22;7.70;;;2.60;;
17173;SDS011;8702;48.130;-1.696;2023-05-17T12:46:49;3.37;;;2.60;;
17173;SDS011;8702;48.130;-1.696;2023-05-17T12:49:19;8.13;;;2.83;;
17173;SDS011;8702;48.130;-1.696;2023-05-17T12:51:47;3.70;;;2.83;;
17173;SDS011;8702;48.130;-1.696;2023-05-17T12:54:24;2.80;;;2.50;;
17173;SDS011;8702;48.130;-1.696;2023-05-17T12:56:51;4.57;;;2.57;;
17173;SDS011;8702;48.130;-1.696;2023-05-17T12:59:19;5.23;;;2.67;;
17173;SDS011;8702;48.130;-1.696;2023-05-17T13:01:49;3.30;;;2.90;;
17173;SDS011;8702;48.130;-1.696;2023-05-17T13:04:18;4.77;;;2.80;;
17173;SDS011;8702;48.130;-1.696;2023-05-17T13:06:47;5.60;;;2.50;;
17173;SDS011;8702;48.130;-1.696;2023-05-17T13:09:14;4.37;;;2.40;;
17173;SDS011;8702;48.130;-1.696;2023-05-17T13:11:42;5.53;;;2.23;;
17173;SDS011;8702;48.130;-1.696;2023-05-17T13:14:10;2.80;;;2.57;;
17173;SDS011;8702;48.130;-1.696;2023-05-17T13:16:37;2.97;;;2.53;;
17173;SDS011;8702;48.130;-1.696;2023-05-17T13:19:10;4.93;;;2.87;;
17173;SDS011;8702;48.130;-1.696;2023-05-17T13:21:40;5.20;;;2.80;;
17173;SDS011;8702;48.130;-1.696;2023-05-17T13:24:07;2.97;;;2.60;;
17173;SDS011;8702;48.130;-1.696;2023-05-17T13:26:35;5.00;;;2.63;;
17173;SDS011;8702;48.130;-1.696;2023-05-17T13:29:02;3.87;;;2.73;;
17173;SDS011;8702;48.130;-1.696;2023-05-17T13:31:29;3.57;;;2.63;;
17173;SDS011;8702;48.130;-1.696;2023-05-17T13:33:56;4.80;;;2.90;;
17173;SDS011;8702;48.130;-1.696;2023-05-17T13:36:22;3.17;;;2.80;;
17173;SDS011;8702;48.130;-1.696;2023-05-17T13:38:51;4.40;;;2.50;;
17173;SDS011;8702;48.130;-1.696;2023-05-17T13:41:18;4.20;;;2.73;;
17173;SDS011;8702;48.130;-1.696;2023-05-17T13:43:45;2.63;;;2.43;;
17173;SDS011;8702;48.130;-1.696;2023-05-17T13:46:12;3.90;;;2.67;;
17173;SDS011;8702;48.130;-1.696;2023-05-17T13:48:39;3.90;;;2.50;;
17173;SDS011;8702;48.130;-1.696;2023-05-17T13:51:07;3.87;;;2.80;;
17173;SDS011;8702;48.130;-1.696;2023-05-17T13:53:34;3.43;;;2.47;;
17173;SDS011;8702;48.130;-1.696;2023-05-17T13:56:04;5.50;;;2.67;;
17173;SDS011;8702;48.130;-1.696;2023-05-17T13:58:31;5.47;;;2.77;;
17173;SDS011;8702;48.130;-1.696;2023-05-17T14:01:01;4.20;;;2.63;;
17173;SDS011;8702;48.130;-1.696;2023-05-17T14:03:28;4.50;;;3.13;;
17173;SDS011;8702;48.130;-1.696;2023-05-17T14:05:55;3.67;;;3.00;;
17173;SDS011;8702;48.130;-1.696;2023-05-17T14:08:22;6.07;;;3.00;;
17173;SDS011;8702;48.130;-1.696;2023-05-17T14:10:49;3.93;;;3.00;;
17173;SDS011;8702;48.130;-1.696;2023-05-17T14:13:18;3.00;;;2.60;;
17173;SDS011;8702;48.130;-1.696;2023-05-17T14:15:45;3.27;;;2.77;;
17173;SDS011;8702;48.130;-1.696;2023-05-17T14:18:12;3.63;;;2.57;;
17173;SDS011;8702;48.130;-1.696;2023-05-17T14:20:39;2.70;;;2.30;;
17173;SDS011;8702;48.130;-1.696;2023-05-17T14:23:05;3.33;;;2.10;;
17173;SDS011;8702;48.130;-1.696;2023-05-17T14:25:32;3.33;;;2.60;;
17173;SDS011;8702;48.130;-1.696;2023-05-17T14:27:59;3.57;;;2.50;;
17173;SDS011;8702;48.130;-1.696;2023-05-17T14:30:28;2.40;;;2.07;;
17173;SDS011;8702;48.130;-1.696;2023-05-17T14:32:57;3.17;;;2.80;;
17173;SDS011;8702;48.130;-1.696;2023-05-17T14:35:24;2.50;;;2.30;;
17173;SDS011;8702;48.130;-1.696;2023-05-17T14:37:51;3.87;;;2.30;;
17173;SDS011;8702;48.130;-1.696;2023-05-17T14:40:18;3.20;;;2.63;;
17173;SDS011;8702;48.130;-1.696;2023-05-17T14:42:45;6.27;;;2.60;;
17173;SDS011;8702;48.130;-1.696;2023-05-17T14:45:12;2.97;;;2.43;;
17173;SDS011;8702;48.130;-1.696;2023-05-17T14:47:41;2.57;;;2.30;;
17173;SDS011;8702;48.130;-1.696;2023-05-17T14:50:08;3.57;;;2.50;;
17173;SDS011;8702;48.130;-1.696;2023-05-17T14:52:38;2.63;;;2.27;;
17173;SDS011;8702;48.130;-1.696;2023-05-17T14:55:06;3.53;;;2.30;;
17173;SDS011;8702;48.130;-1.696;2023-05-17T14:57:36;3.60;;;2.40;;